sensor_id;sensor_type;location;lat;lon;timestamp;P1;durP1;ratioP1;P2;durP2;ratioP2
41643;SDS011;44236;48.098;11.582;2023-08-12T00:00:16;4.32;;;2.53;;
41643;SDS011;44236;48.098;11.582;2023-08-12T00:02:43;4.65;;;2.35;;
41643;SDS011;44236;48.098;11.582;2023-08-12T00:05:09;4.82;;;2.95;;
41643;SDS011;44236;48.098;11.582;2023-08-12T00:07:36;4.90;;;2.88;;
41643;SDS011;44236;48.098;11.582;2023-08-12T00:10:02;6.05;;;3.25;;
41643;SDS011;44236;48.098;11.582;2023-08-12T00:12:32;4.75;;;2.40;;
41643;SDS011;44236;48.098;11.582;2023-08-12T00:14:58;5.32;;;2.60;;
41643;SDS011;44236;48.098;11.582;2023-08-12T00:17:24;3.95;;;2.60;;
41643;SDS011;44236;48.098;11.582;2023-08-12T00:19:50;4.32;;;2.60;;
41643;SDS011;44236;48.098;11.582;2023-08-12T00:22:15;4.13;;;2.22;;
41643;SDS011;44236;48.098;11.582;2023-08-12T00:24:41;4.50;;;2.58;;
41643;SDS011;44236;48.098;11.582;2023-08-12T00:27:06;4.68;;;2.40;;
41643;SDS011;44236;48.098;11.582;2023-08-12T00:29:33;3.83;;;2.22;;
41643;SDS011;44236;48.098;11.582;2023-08-12T00:31:59;3.75;;;2.22;;
41643;SDS011;44236;48.098;11.582;2023-08-12T00:34:25;5.07;;;2.58;;
41643;SDS011;44236;48.098;11.582;2023-08-12T00:36:51;4.82;;;2.45;;
41643;SDS011;44236;48.098;11.582;2023-08-12T00:39:16;4.22;;;2.60;;
41643;SDS011;44236;48.098;11.582;2023-08-12T00:41:42;4.10;;;2.47;;
41643;SDS011;44236;48.098;11.582;2023-08-12T00:44:08;3.95;;;2.30;;
41643;SDS011;44236;48.098;11.582;2023-08-12T00:46:34;3.78;;;2.22;;
41643;SDS011;44236;48.098;11.582;2023-08-12T00:49:00;4.20;;;2.35;;
41643;SDS011;44236;48.098;11.582;2023-08-12T00:51:25;6.05;;;2.33;;
41643;SDS011;44236;48.098;11.582;2023-08-12T00:53:52;3.65;;;2.35;;
41643;SDS011;44236;48.098;11.582;2023-08-12T00:56:18;4.90;;;2.70;;
41643;SDS011;44236;48.098;11.582;2023-08-12T00:58:44;5.72;;;2.75;;
41643;SDS011;44236;48.098;11.582;2023-08-12T01:01:10;3.95;;;1.90;;
41643;SDS011;44236;48.098;11.582;2023-08-12T01:03:37;3.50;;;2.15;;
41643;SDS011;44236;48.098;11.582;2023-08-12T01:06:02;4.57;;;2.17;;
41643;SDS011;44236;48.098;11.582;2023-08-12T01:08:30;4.10;;;2.60;;
41643;SDS011;44236;48.098;11.582;2023-08-12T01:11:06;4.57;;;2.35;;
41643;SDS011;44236;48.098;11.582;2023-08-12T01:16:23;4.60;;;2.83;;
41643;SDS011;44236;48.098;11.582;2023-08-12T01:18:53;3.85;;;2.28;;
41643;SDS011;44236;48.098;11.582;2023-08-12T01:21:20;4.80;;;2.58;;
41643;SDS011;44236;48.098;11.582;2023-08-12T01:23:47;3.80;;;2.25;;
41643;SDS011;44236;48.098;11.582;2023-08-12T01:26:13;4.20;;;2.60;;
41643;SDS011;44236;48.098;11.582;2023-08-12T01:28:38;4.55;;;2.65;;
41643;SDS011;44236;48.098;11.582;2023-08-12T01:31:15;4.55;;;2.40;;
41643;SDS011;44236;48.098;11.582;2023-08-12T01:33:55;3.85;;;2.30;;
41643;SDS011;44236;48.098;11.582;2023-08-12T01:36:27;3.80;;;2.10;;
41643;SDS011;44236;48.098;11.582;2023-08-12T01:38:56;4.25;;;2.50;;
41643;SDS011;44236;48.098;11.582;2023-08-12T01:41:24;5.03;;;2.10;;
41643;SDS011;44236;48.098;11.582;2023-08-12T01:43:51;3.95;;;2.10;;
41643;SDS011;44236;48.098;11.582;2023-08-12T01:46:16;5.80;;;2.50;;
41643;SDS011;44236;48.098;11.582;2023-08-12T01:48:42;3.00;;;1.98;;
41643;SDS011;44236;48.098;11.582;2023-08-12T01:51:08;5.28;;;2.17;;
41643;SDS011;44236;48.098;11.582;2023-08-12T01:53:33;4.20;;;2.30;;
41643;SDS011;44236;48.098;11.582;2023-08-12T01:55:59;4.55;;;2.42;;
41643;SDS011;44236;48.098;11.582;2023-08-12T01:58:24;3.88;;;2.15;;
41643;SDS011;44236;48.098;11.582;2023-08-12T02:00:51;3.63;;;2.15;;
41643;SDS011;44236;48.098;11.582;2023-08-12T02:03:17;5.20;;;2.17;;
41643;SDS011;44236;48.098;11.582;2023-08-12T02:05:43;4.35;;;2.50;;
41643;SDS011;44236;48.098;11.582;2023-08-12T02:08:09;3.55;;;2.05;;
41643;SDS011;44236;48.098;11.582;2023-08-12T02:10:34;3.90;;;2.30;;
41643;SDS011;44236;48.098;11.582;2023-08-12T02:13:00;3.20;;;2.17;;
41643;SDS011;44236;48.098;11.582;2023-08-12T02:15:27;4.35;;;2.60;;
41643;SDS011;44236;48.098;11.582;2023-08-12T02:17:53;3.92;;;2.15;;
41643;SDS011;44236;48.098;11.582;2023-08-12T02:20:19;4.78;;;2.53;;
41643;SDS011;44236;48.098;11.582;2023-08-12T02:22:44;3.75;;;2.30;;
41643;SDS011;44236;48.098;11.582;2023-08-12T02:25:10;3.95;;;2.08;;
41643;SDS011;44236;48.098;11.582;2023-08-12T02:27:35;3.38;;;2.10;;
41643;SDS011;44236;48.098;11.582;2023-08-12T02:30:01;3.22;;;2.00;;
41643;SDS011;44236;48.098;11.582;2023-08-12T02:32:27;4.95;;;2.50;;
41643;SDS011;44236;48.098;11.582;2023-08-12T02:34:53;4.70;;;2.70;;
41643;SDS011;44236;48.098;11.582;2023-08-12T02:37:18;4.47;;;2.92;;
41643;SDS011;44236;48.098;11.582;2023-08-12T02:39:44;4.75;;;2.17;;
41643;SDS011;44236;48.098;11.582;2023-08-12T02:42:09;3.47;;;1.92;;
41643;SDS011;44236;48.098;11.582;2023-08-12T02:44:35;4.25;;;2.55;;
41643;SDS011;44236;48.098;11.582;2023-08-12T02:47:01;3.53;;;1.98;;
41643;SDS011;44236;48.098;11.582;2023-08-12T02:49:26;3.83;;;2.10;;
41643;SDS011;44236;48.098;11.582;2023-08-12T02:51:52;3.92;;;2.22;;
41643;SDS011;44236;48.098;11.582;2023-08-12T02:54:18;5.22;;;2.30;;
41643;SDS011;44236;48.098;11.582;2023-08-12T02:56:43;3.53;;;2.30;;
41643;SDS011;44236;48.098;11.582;2023-08-12T02:59:09;3.70;;;2.13;;
41643;SDS011;44236;48.098;11.582;2023-08-12T03:01:35;3.30;;;2.03;;
41643;SDS011;44236;48.098;11.582;2023-08-12T03:04:00;3.85;;;2.13;;
41643;SDS011;44236;48.098;11.582;2023-08-12T03:06:26;6.32;;;2.30;;
41643;SDS011;44236;48.098;11.582;2023-08-12T03:08:51;3.80;;;2.25;;
41643;SDS011;44236;48.098;11.582;2023-08-12T03:11:17;4.35;;;2.33;;
41643;SDS011;44236;48.098;11.582;2023-08-12T03:13:43;3.92;;;2.00;;
41643;SDS011;44236;48.098;11.582;2023-08-12T03:16:12;5.00;;;2.58;;
41643;SDS011;44236;48.098;11.582;2023-08-12T03:18:39;3.38;;;1.98;;
41643;SDS011;44236;48.098;11.582;2023-08-12T03:21:05;3.72;;;1.75;;
41643;SDS011;44236;48.098;11.582;2023-08-12T03:23:35;4.07;;;2.08;;
41643;SDS011;44236;48.098;11.582;2023-08-12T03:26:01;5.65;;;2.00;;
41643;SDS011;44236;48.098;11.582;2023-08-12T03:28:26;3.67;;;2.20;;
41643;SDS011;44236;48.098;11.582;2023-08-12T03:30:52;3.67;;;2.00;;
41643;SDS011;44236;48.098;11.582;2023-08-12T03:33:18;4.07;;;2.13;;
41643;SDS011;44236;48.098;11.582;2023-08-12T03:35:45;2.90;;;1.90;;
41643;SDS011;44236;48.098;11.582;2023-08-12T03:38:11;3.40;;;1.95;;
41643;SDS011;44236;48.098;11.582;2023-08-12T03:40:37;4.82;;;2.33;;
41643;SDS011;44236;48.098;11.582;2023-08-12T03:43:03;4.05;;;2.20;;
41643;SDS011;44236;48.098;11.582;2023-08-12T03:45:29;3.53;;;2.00;;
41643;SDS011;44236;48.098;11.582;2023-08-12T03:47:55;4.97;;;2.20;;
41643;SDS011;44236;48.098;11.582;2023-08-12T03:50:20;3.50;;;2.03;;
41643;SDS011;44236;48.098;11.582;2023-08-12T03:52:46;3.10;;;1.70;;
41643;SDS011;44236;48.098;11.582;2023-08-12T03:55:12;5.18;;;2.35;;
41643;SDS011;44236;48.098;11.582;2023-08-12T03:57:37;5.05;;;2.10;;
41643;SDS011;44236;48.098;11.582;2023-08-12T04:00:03;3.10;;;2.10;;
41643;SDS011;44236;48.098;11.582;2023-08-12T04:02:29;3.05;;;1.83;;
41643;SDS011;44236;48.098;11.582;2023-08-12T04:04:55;3.53;;;2.20;;
41643;SDS011;44236;48.098;11.582;2023-08-12T04:07:20;3.63;;;2.10;;
41643;SDS011;44236;48.098;11.582;2023-08-12T04:09:46;3.45;;;1.63;;
41643;SDS011;44236;48.098;11.582;2023-08-12T04:12:12;3.88;;;2.25;;
41643;SDS011;44236;48.098;11.582;2023-08-12T04:14:37;3.63;;;1.98;;
41643;SDS011;44236;48.098;11.582;2023-08-12T04:17:03;2.70;;;1.75;;
41643;SDS011;44236;48.098;11.582;2023-08-12T04:19:28;3.63;;;2.13;;
41643;SDS011;44236;48.098;11.582;2023-08-12T04:21:54;3.47;;;1.95;;
41643;SDS011;44236;48.098;11.582;2023-08-12T04:24:19;3.53;;;1.73;;
41643;SDS011;44236;48.098;11.582;2023-08-12T04:26:45;3.47;;;2.10;;
41643;SDS011;44236;48.098;11.582;2023-08-12T04:29:11;3.45;;;2.03;;
41643;SDS011;44236;48.098;11.582;2023-08-12T04:31:36;3.30;;;1.90;;
41643;SDS011;44236;48.098;11.582;2023-08-12T04:34:02;4.00;;;2.15;;
41643;SDS011;44236;48.098;11.582;2023-08-12T04:36:29;3.33;;;1.73;;
41643;SDS011;44236;48.098;11.582;2023-08-12T04:38:55;4.47;;;1.83;;
41643;SDS011;44236;48.098;11.582;2023-08-12T04:41:20;3.35;;;1.98;;
41643;SDS011;44236;48.098;11.582;2023-08-12T04:43:48;4.45;;;1.73;;
41643;SDS011;44236;48.098;11.582;2023-08-12T04:46:14;3.72;;;2.05;;
41643;SDS011;44236;48.098;11.582;2023-08-12T04:48:40;2.92;;;1.60;;
41643;SDS011;44236;48.098;11.582;2023-08-12T04:51:05;3.17;;;1.90;;
41643;SDS011;44236;48.098;11.582;2023-08-12T04:53:32;3.40;;;1.90;;
41643;SDS011;44236;48.098;11.582;2023-08-12T04:55:57;3.95;;;1.88;;
41643;SDS011;44236;48.098;11.582;2023-08-12T04:58:23;4.05;;;1.95;;
41643;SDS011;44236;48.098;11.582;2023-08-12T05:00:49;3.35;;;2.13;;
41643;SDS011;44236;48.098;11.582;2023-08-12T05:03:18;3.13;;;1.80;;
41643;SDS011;44236;48.098;11.582;2023-08-12T05:05:48;3.40;;;1.85;;
41643;SDS011;44236;48.098;11.582;2023-08-12T05:08:16;2.97;;;1.75;;
41643;SDS011;44236;48.098;11.582;2023-08-12T05:10:42;3.20;;;2.00;;
41643;SDS011;44236;48.098;11.582;2023-08-12T05:13:08;2.88;;;1.70;;
41643;SDS011;44236;48.098;11.582;2023-08-12T05:15:33;3.25;;;1.83;;
41643;SDS011;44236;48.098;11.582;2023-08-12T05:18:01;3.05;;;1.60;;
41643;SDS011;44236;48.098;11.582;2023-08-12T05:20:27;2.05;;;1.52;;
41643;SDS011;44236;48.098;11.582;2023-08-12T05:22:53;3.25;;;1.95;;
41643;SDS011;44236;48.098;11.582;2023-08-12T05:25:18;2.55;;;1.65;;
41643;SDS011;44236;48.098;11.582;2023-08-12T05:27:44;3.72;;;1.92;;
41643;SDS011;44236;48.098;11.582;2023-08-12T05:30:10;3.03;;;1.83;;
41643;SDS011;44236;48.098;11.582;2023-08-12T05:32:36;3.38;;;1.73;;
41643;SDS011;44236;48.098;11.582;2023-08-12T05:35:01;3.13;;;1.75;;
41643;SDS011;44236;48.098;11.582;2023-08-12T05:37:27;2.90;;;1.90;;
41643;SDS011;44236;48.098;11.582;2023-08-12T05:39:52;4.43;;;1.98;;
41643;SDS011;44236;48.098;11.582;2023-08-12T05:42:18;3.15;;;1.67;;
41643;SDS011;44236;48.098;11.582;2023-08-12T05:44:43;3.75;;;1.90;;
41643;SDS011;44236;48.098;11.582;2023-08-12T05:47:09;4.72;;;1.83;;
41643;SDS011;44236;48.098;11.582;2023-08-12T05:49:35;3.85;;;2.30;;
41643;SDS011;44236;48.098;11.582;2023-08-12T05:52:00;3.20;;;1.70;;
41643;SDS011;44236;48.098;11.582;2023-08-12T05:54:26;3.10;;;1.80;;
41643;SDS011;44236;48.098;11.582;2023-08-12T05:56:51;4.07;;;2.08;;
41643;SDS011;44236;48.098;11.582;2023-08-12T05:59:17;2.90;;;1.80;;
41643;SDS011;44236;48.098;11.582;2023-08-12T06:01:42;3.20;;;1.70;;
41643;SDS011;44236;48.098;11.582;2023-08-12T06:04:08;2.97;;;1.65;;
41643;SDS011;44236;48.098;11.582;2023-08-12T06:06:34;3.85;;;1.70;;
41643;SDS011;44236;48.098;11.582;2023-08-12T06:08:59;3.45;;;2.03;;
41643;SDS011;44236;48.098;11.582;2023-08-12T06:11:25;2.80;;;1.67;;
41643;SDS011;44236;48.098;11.582;2023-08-12T06:13:50;1.92;;;1.25;;
41643;SDS011;44236;48.098;11.582;2023-08-12T06:16:16;3.47;;;2.05;;
41643;SDS011;44236;48.098;11.582;2023-08-12T06:18:42;2.97;;;1.70;;
41643;SDS011;44236;48.098;11.582;2023-08-12T06:21:07;2.88;;;1.60;;
41643;SDS011;44236;48.098;11.582;2023-08-12T06:23:33;3.30;;;2.03;;
41643;SDS011;44236;48.098;11.582;2023-08-12T06:25:58;2.58;;;1.58;;
41643;SDS011;44236;48.098;11.582;2023-08-12T06:28:24;3.55;;;1.70;;
41643;SDS011;44236;48.098;11.582;2023-08-12T06:30:49;3.40;;;1.63;;
41643;SDS011;44236;48.098;11.582;2023-08-12T06:33:15;2.65;;;1.50;;
41643;SDS011;44236;48.098;11.582;2023-08-12T06:35:41;4.55;;;1.48;;
41643;SDS011;44236;48.098;11.582;2023-08-12T06:38:07;3.40;;;1.67;;
41643;SDS011;44236;48.098;11.582;2023-08-12T06:40:35;2.92;;;1.70;;
41643;SDS011;44236;48.098;11.582;2023-08-12T06:43:00;3.15;;;1.75;;
41643;SDS011;44236;48.098;11.582;2023-08-12T06:45:26;3.63;;;1.77;;
41643;SDS011;44236;48.098;11.582;2023-08-12T06:47:52;2.67;;;1.55;;
41643;SDS011;44236;48.098;11.582;2023-08-12T06:50:17;2.28;;;1.50;;
41643;SDS011;44236;48.098;11.582;2023-08-12T06:52:43;2.50;;;1.50;;
41643;SDS011;44236;48.098;11.582;2023-08-12T06:55:08;3.45;;;1.77;;
41643;SDS011;44236;48.098;11.582;2023-08-12T06:57:34;2.60;;;1.60;;
41643;SDS011;44236;48.098;11.582;2023-08-12T07:00:00;2.97;;;1.98;;
41643;SDS011;44236;48.098;11.582;2023-08-12T07:02:25;5.57;;;2.10;;
41643;SDS011;44236;48.098;11.582;2023-08-12T07:04:51;2.50;;;1.50;;
41643;SDS011;44236;48.098;11.582;2023-08-12T07:07:16;3.47;;;1.73;;
41643;SDS011;44236;48.098;11.582;2023-08-12T07:09:42;2.47;;;1.38;;
41643;SDS011;44236;48.098;11.582;2023-08-12T07:12:07;2.85;;;1.63;;
41643;SDS011;44236;48.098;11.582;2023-08-12T07:14:33;2.70;;;1.67;;
41643;SDS011;44236;48.098;11.582;2023-08-12T07:16:59;2.85;;;1.55;;
41643;SDS011;44236;48.098;11.582;2023-08-12T07:19:24;3.33;;;1.60;;
41643;SDS011;44236;48.098;11.582;2023-08-12T07:21:50;2.45;;;1.27;;
41643;SDS011;44236;48.098;11.582;2023-08-12T07:24:15;2.53;;;1.50;;
41643;SDS011;44236;48.098;11.582;2023-08-12T07:26:41;2.60;;;1.55;;
41643;SDS011;44236;48.098;11.582;2023-08-12T07:29:06;2.13;;;1.30;;
41643;SDS011;44236;48.098;11.582;2023-08-12T07:31:32;2.80;;;1.70;;
41643;SDS011;44236;48.098;11.582;2023-08-12T07:33:58;2.78;;;1.55;;
41643;SDS011;44236;48.098;11.582;2023-08-12T07:36:24;3.92;;;1.88;;
41643;SDS011;44236;48.098;11.582;2023-08-12T07:38:49;2.33;;;1.58;;
41643;SDS011;44236;48.098;11.582;2023-08-12T07:41:15;2.70;;;1.55;;
41643;SDS011;44236;48.098;11.582;2023-08-12T07:43:40;2.40;;;1.33;;
41643;SDS011;44236;48.098;11.582;2023-08-12T07:46:06;2.67;;;1.77;;
41643;SDS011;44236;48.098;11.582;2023-08-12T07:48:31;2.30;;;1.33;;
41643;SDS011;44236;48.098;11.582;2023-08-12T07:50:57;2.70;;;1.48;;
41643;SDS011;44236;48.098;11.582;2023-08-12T07:53:23;1.92;;;1.20;;
41643;SDS011;44236;48.098;11.582;2023-08-12T07:55:49;2.20;;;1.27;;
41643;SDS011;44236;48.098;11.582;2023-08-12T07:58:15;2.55;;;1.77;;
41643;SDS011;44236;48.098;11.582;2023-08-12T08:00:40;2.92;;;1.50;;
41643;SDS011;44236;48.098;11.582;2023-08-12T08:03:06;2.92;;;1.75;;
41643;SDS011;44236;48.098;11.582;2023-08-12T08:05:32;2.45;;;1.40;;
41643;SDS011;44236;48.098;11.582;2023-08-12T08:07:57;2.80;;;1.67;;
41643;SDS011;44236;48.098;11.582;2023-08-12T08:10:23;2.58;;;1.50;;
41643;SDS011;44236;48.098;11.582;2023-08-12T08:12:48;3.05;;;1.65;;
41643;SDS011;44236;48.098;11.582;2023-08-12T08:15:14;2.50;;;1.35;;
41643;SDS011;44236;48.098;11.582;2023-08-12T08:17:40;2.90;;;1.38;;
41643;SDS011;44236;48.098;11.582;2023-08-12T08:20:06;2.88;;;1.60;;
41643;SDS011;44236;48.098;11.582;2023-08-12T08:22:32;2.42;;;1.60;;
41643;SDS011;44236;48.098;11.582;2023-08-12T08:24:58;2.35;;;1.52;;
41643;SDS011;44236;48.098;11.582;2023-08-12T08:27:24;1.98;;;1.23;;
41643;SDS011;44236;48.098;11.582;2023-08-12T08:29:50;2.60;;;1.60;;
41643;SDS011;44236;48.098;11.582;2023-08-12T08:32:16;2.63;;;1.60;;
41643;SDS011;44236;48.098;11.582;2023-08-12T08:34:41;2.80;;;1.70;;
41643;SDS011;44236;48.098;11.582;2023-08-12T08:37:07;2.92;;;1.42;;
41643;SDS011;44236;48.098;11.582;2023-08-12T08:39:33;2.80;;;1.63;;
41643;SDS011;44236;48.098;11.582;2023-08-12T08:41:59;2.25;;;1.42;;
41643;SDS011;44236;48.098;11.582;2023-08-12T08:44:27;2.45;;;1.38;;
41643;SDS011;44236;48.098;11.582;2023-08-12T08:46:55;2.30;;;1.30;;
41643;SDS011;44236;48.098;11.582;2023-08-12T08:49:22;2.92;;;1.58;;
41643;SDS011;44236;48.098;11.582;2023-08-12T08:51:50;2.85;;;1.77;;
41643;SDS011;44236;48.098;11.582;2023-08-12T08:54:17;2.42;;;1.38;;
41643;SDS011;44236;48.098;11.582;2023-08-12T08:56:44;2.03;;;1.40;;
41643;SDS011;44236;48.098;11.582;2023-08-12T08:59:10;2.67;;;1.52;;
41643;SDS011;44236;48.098;11.582;2023-08-12T09:01:36;2.13;;;1.25;;
41643;SDS011;44236;48.098;11.582;2023-08-12T09:04:02;2.33;;;1.30;;
41643;SDS011;44236;48.098;11.582;2023-08-12T09:06:28;3.05;;;1.63;;
41643;SDS011;44236;48.098;11.582;2023-08-12T09:08:55;2.45;;;1.33;;
41643;SDS011;44236;48.098;11.582;2023-08-12T09:11:21;2.53;;;1.27;;
41643;SDS011;44236;48.098;11.582;2023-08-12T09:13:48;2.78;;;1.60;;
41643;SDS011;44236;48.098;11.582;2023-08-12T09:16:14;1.88;;;1.23;;
41643;SDS011;44236;48.098;11.582;2023-08-12T09:18:40;1.85;;;1.25;;
41643;SDS011;44236;48.098;11.582;2023-08-12T09:21:08;2.38;;;1.40;;
41643;SDS011;44236;48.098;11.582;2023-08-12T09:23:37;2.92;;;1.50;;
41643;SDS011;44236;48.098;11.582;2023-08-12T09:26:10;2.33;;;1.50;;
41643;SDS011;44236;48.098;11.582;2023-08-12T09:28:39;2.65;;;1.60;;
41643;SDS011;44236;48.098;11.582;2023-08-12T09:31:05;3.03;;;1.58;;
41643;SDS011;44236;48.098;11.582;2023-08-12T09:33:30;2.22;;;1.42;;
41643;SDS011;44236;48.098;11.582;2023-08-12T09:35:56;2.40;;;1.55;;
41643;SDS011;44236;48.098;11.582;2023-08-12T09:38:22;3.30;;;1.80;;
41643;SDS011;44236;48.098;11.582;2023-08-12T09:40:47;2.55;;;1.38;;
41643;SDS011;44236;48.098;11.582;2023-08-12T09:43:13;2.67;;;1.52;;
41643;SDS011;44236;48.098;11.582;2023-08-12T09:45:41;2.75;;;1.85;;
41643;SDS011;44236;48.098;11.582;2023-08-12T09:48:09;2.45;;;1.30;;
41643;SDS011;44236;48.098;11.582;2023-08-12T09:50:35;1.98;;;1.10;;
41643;SDS011;44236;48.098;11.582;2023-08-12T09:53:01;3.40;;;1.48;;
41643;SDS011;44236;48.098;11.582;2023-08-12T09:55:28;3.00;;;1.45;;
41643;SDS011;44236;48.098;11.582;2023-08-12T09:57:56;2.10;;;1.25;;
41643;SDS011;44236;48.098;11.582;2023-08-12T10:00:24;2.50;;;1.48;;
41643;SDS011;44236;48.098;11.582;2023-08-12T10:02:51;2.63;;;1.25;;
41643;SDS011;44236;48.098;11.582;2023-08-12T10:07:51;2.25;;;1.42;;
41643;SDS011;44236;48.098;11.582;2023-08-12T10:10:18;1.70;;;1.00;;
41643;SDS011;44236;48.098;11.582;2023-08-12T10:12:45;1.83;;;1.20;;
41643;SDS011;44236;48.098;11.582;2023-08-12T10:15:11;2.38;;;1.27;;
41643;SDS011;44236;48.098;11.582;2023-08-12T10:17:38;1.80;;;1.13;;
41643;SDS011;44236;48.098;11.582;2023-08-12T10:20:05;2.42;;;1.42;;
41643;SDS011;44236;48.098;11.582;2023-08-12T10:22:33;1.90;;;1.27;;
41643;SDS011;44236;48.098;11.582;2023-08-12T10:25:03;2.35;;;1.40;;
41643;SDS011;44236;48.098;11.582;2023-08-12T10:27:29;2.22;;;1.30;;
41643;SDS011;44236;48.098;11.582;2023-08-12T10:29:58;1.60;;;1.08;;
41643;SDS011;44236;48.098;11.582;2023-08-12T10:32:26;2.80;;;1.67;;
41643;SDS011;44236;48.098;11.582;2023-08-12T10:34:54;1.75;;;1.30;;
41643;SDS011;44236;48.098;11.582;2023-08-12T10:37:22;2.33;;;1.42;;
41643;SDS011;44236;48.098;11.582;2023-08-12T10:39:49;2.83;;;1.55;;
41643;SDS011;44236;48.098;11.582;2023-08-12T10:42:37;2.70;;;1.50;;
41643;SDS011;44236;48.098;11.582;2023-08-12T10:45:11;2.38;;;1.38;;
41643;SDS011;44236;48.098;11.582;2023-08-12T10:48:23;1.92;;;1.30;;
41643;SDS011;44236;48.098;11.582;2023-08-12T10:50:25;1.67;;;1.20;;
41643;SDS011;44236;48.098;11.582;2023-08-12T10:52:54;1.77;;;1.23;;
41643;SDS011;44236;48.098;11.582;2023-08-12T10:55:24;1.50;;;1.13;;
41643;SDS011;44236;48.098;11.582;2023-08-12T10:57:51;2.07;;;1.10;;
41643;SDS011;44236;48.098;11.582;2023-08-12T11:00:19;2.75;;;1.52;;
41643;SDS011;44236;48.098;11.582;2023-08-12T11:02:52;2.65;;;1.40;;
41643;SDS011;44236;48.098;11.582;2023-08-12T11:05:19;2.75;;;1.30;;
41643;SDS011;44236;48.098;11.582;2023-08-12T11:10:26;1.77;;;1.17;;
41643;SDS011;44236;48.098;11.582;2023-08-12T11:12:53;2.20;;;1.27;;
41643;SDS011;44236;48.098;11.582;2023-08-12T11:15:33;2.17;;;1.20;;
41643;SDS011;44236;48.098;11.582;2023-08-12T11:20:30;2.15;;;1.10;;
41643;SDS011;44236;48.098;11.582;2023-08-12T11:22:56;2.55;;;1.30;;
41643;SDS011;44236;48.098;11.582;2023-08-12T11:25:25;2.08;;;1.17;;
41643;SDS011;44236;48.098;11.582;2023-08-12T11:27:53;2.50;;;1.30;;
41643;SDS011;44236;48.098;11.582;2023-08-12T11:30:19;2.80;;;1.65;;
41643;SDS011;44236;48.098;11.582;2023-08-12T11:32:47;2.55;;;1.30;;
41643;SDS011;44236;48.098;11.582;2023-08-12T11:35:15;1.90;;;1.30;;
41643;SDS011;44236;48.098;11.582;2023-08-12T11:37:42;2.17;;;1.45;;
41643;SDS011;44236;48.098;11.582;2023-08-12T11:40:10;1.98;;;1.17;;
41643;SDS011;44236;48.098;11.582;2023-08-12T11:42:40;1.83;;;1.17;;
41643;SDS011;44236;48.098;11.582;2023-08-12T11:45:07;2.15;;;1.40;;
41643;SDS011;44236;48.098;11.582;2023-08-12T11:47:34;2.38;;;1.20;;
41643;SDS011;44236;48.098;11.582;2023-08-12T11:50:04;2.20;;;1.20;;
41643;SDS011;44236;48.098;11.582;2023-08-12T11:52:31;2.05;;;1.30;;
41643;SDS011;44236;48.098;11.582;2023-08-12T11:54:57;2.40;;;1.30;;
41643;SDS011;44236;48.098;11.582;2023-08-12T11:57:24;2.40;;;1.20;;
41643;SDS011;44236;48.098;11.582;2023-08-12T11:59:51;2.38;;;1.50;;
41643;SDS011;44236;48.098;11.582;2023-08-12T12:02:17;2.42;;;1.42;;
41643;SDS011;44236;48.098;11.582;2023-08-12T12:04:42;2.42;;;1.50;;
41643;SDS011;44236;48.098;11.582;2023-08-12T12:07:18;1.95;;;1.27;;
41643;SDS011;44236;48.098;11.582;2023-08-12T12:09:45;1.83;;;1.05;;
41643;SDS011;44236;48.098;11.582;2023-08-12T12:12:10;2.50;;;1.50;;
41643;SDS011;44236;48.098;11.582;2023-08-12T12:14:36;2.05;;;1.10;;
41643;SDS011;44236;48.098;11.582;2023-08-12T12:17:06;2.20;;;1.38;;
41643;SDS011;44236;48.098;11.582;2023-08-12T12:19:32;2.50;;;1.30;;
41643;SDS011;44236;48.098;11.582;2023-08-12T12:21:58;2.70;;;1.48;;
41643;SDS011;44236;48.098;11.582;2023-08-12T12:24:28;1.77;;;1.20;;
41643;SDS011;44236;48.098;11.582;2023-08-12T12:26:56;1.75;;;1.30;;
41643;SDS011;44236;48.098;11.582;2023-08-12T12:29:21;2.03;;;1.25;;
41643;SDS011;44236;48.098;11.582;2023-08-12T12:31:47;1.92;;;1.10;;
41643;SDS011;44236;48.098;11.582;2023-08-12T12:34:13;2.72;;;1.38;;
41643;SDS011;44236;48.098;11.582;2023-08-12T12:36:39;2.15;;;1.23;;
41643;SDS011;44236;48.098;11.582;2023-08-12T12:39:06;2.30;;;1.33;;
41643;SDS011;44236;48.098;11.582;2023-08-12T12:41:32;1.30;;;1.00;;
41643;SDS011;44236;48.098;11.582;2023-08-12T12:44:01;2.75;;;1.55;;
41643;SDS011;44236;48.098;11.582;2023-08-12T12:46:28;1.67;;;1.10;;
41643;SDS011;44236;48.098;11.582;2023-08-12T12:48:53;2.03;;;1.30;;
41643;SDS011;44236;48.098;11.582;2023-08-12T12:51:19;2.33;;;1.17;;
41643;SDS011;44236;48.098;11.582;2023-08-12T12:53:44;2.33;;;1.40;;
41643;SDS011;44236;48.098;11.582;2023-08-12T12:56:10;2.67;;;1.38;;
41643;SDS011;44236;48.098;11.582;2023-08-12T12:58:36;2.83;;;1.40;;
41643;SDS011;44236;48.098;11.582;2023-08-12T13:01:02;2.00;;;1.30;;
41643;SDS011;44236;48.098;11.582;2023-08-12T13:03:30;2.50;;;1.52;;
41643;SDS011;44236;48.098;11.582;2023-08-12T13:05:56;2.55;;;1.40;;
41643;SDS011;44236;48.098;11.582;2023-08-12T13:08:22;1.98;;;1.20;;
41643;SDS011;44236;48.098;11.582;2023-08-12T13:10:48;2.65;;;1.38;;
41643;SDS011;44236;48.098;11.582;2023-08-12T13:13:14;1.88;;;1.10;;
41643;SDS011;44236;48.098;11.582;2023-08-12T13:15:42;1.80;;;1.20;;
41643;SDS011;44236;48.098;11.582;2023-08-12T13:18:08;2.03;;;1.20;;
41643;SDS011;44236;48.098;11.582;2023-08-12T13:20:34;2.08;;;1.30;;
41643;SDS011;44236;48.098;11.582;2023-08-12T13:23:00;2.20;;;1.15;;
41643;SDS011;44236;48.098;11.582;2023-08-12T13:25:28;2.03;;;1.30;;
41643;SDS011;44236;48.098;11.582;2023-08-12T13:27:55;2.13;;;1.30;;
41643;SDS011;44236;48.098;11.582;2023-08-12T13:30:21;2.10;;;1.10;;
41643;SDS011;44236;48.098;11.582;2023-08-12T13:32:46;2.17;;;1.30;;
41643;SDS011;44236;48.098;11.582;2023-08-12T13:35:12;1.58;;;1.10;;
41643;SDS011;44236;48.098;11.582;2023-08-12T13:37:38;3.28;;;1.30;;
41643;SDS011;44236;48.098;11.582;2023-08-12T13:40:03;2.53;;;1.50;;
41643;SDS011;44236;48.098;11.582;2023-08-12T13:42:30;3.30;;;1.40;;
41643;SDS011;44236;48.098;11.582;2023-08-12T13:44:55;2.38;;;1.38;;
41643;SDS011;44236;48.098;11.582;2023-08-12T13:47:21;1.92;;;1.20;;
41643;SDS011;44236;48.098;11.582;2023-08-12T13:49:46;2.28;;;1.30;;
41643;SDS011;44236;48.098;11.582;2023-08-12T13:52:12;1.90;;;1.25;;
41643;SDS011;44236;48.098;11.582;2023-08-12T13:54:38;2.55;;;1.30;;
41643;SDS011;44236;48.098;11.582;2023-08-12T13:57:03;2.00;;;1.20;;
41643;SDS011;44236;48.098;11.582;2023-08-12T13:59:29;1.73;;;1.20;;
41643;SDS011;44236;48.098;11.582;2023-08-12T14:01:55;2.88;;;1.65;;
41643;SDS011;44236;48.098;11.582;2023-08-12T14:04:20;2.00;;;1.05;;
41643;SDS011;44236;48.098;11.582;2023-08-12T14:06:46;2.45;;;1.45;;
41643;SDS011;44236;48.098;11.582;2023-08-12T14:09:12;2.08;;;1.27;;
41643;SDS011;44236;48.098;11.582;2023-08-12T14:11:39;2.42;;;1.55;;
41643;SDS011;44236;48.098;11.582;2023-08-12T14:14:05;5.00;;;1.60;;
41643;SDS011;44236;48.098;11.582;2023-08-12T14:16:31;2.70;;;1.50;;
41643;SDS011;44236;48.098;11.582;2023-08-12T14:18:56;2.05;;;1.25;;
41643;SDS011;44236;48.098;11.582;2023-08-12T14:21:22;2.05;;;1.25;;
41643;SDS011;44236;48.098;11.582;2023-08-12T14:23:47;1.70;;;1.00;;
41643;SDS011;44236;48.098;11.582;2023-08-12T14:26:13;2.25;;;1.38;;
41643;SDS011;44236;48.098;11.582;2023-08-12T14:28:39;2.92;;;1.52;;
41643;SDS011;44236;48.098;11.582;2023-08-12T14:31:04;2.30;;;1.25;;
41643;SDS011;44236;48.098;11.582;2023-08-12T14:33:30;2.08;;;1.27;;
41643;SDS011;44236;48.098;11.582;2023-08-12T14:35:58;1.90;;;1.33;;
41643;SDS011;44236;48.098;11.582;2023-08-12T14:38:25;1.92;;;1.20;;